Akaska, South Dakota
Current Conditions -  °F | °C
As of 8:52 PM on Friday 24 Oct 2014 (Local Time) from KMBG Reporting Station
Clear Clear  
Wind Chill: 61°   Ceiling: Unl
Heat Index: 61°   Visibility: 10mi
Dew Point: 36°   Wind: 6mph
Humidity: 39%   Direction: 330°NNW
Pressure: 30.01"   Gusts: NA
Location:  45.33°N, 100.12°W
Report Text: KMBG 250152Z AUTO 33005KT 10SM CLR 16/02 A3001 RMK AO2 SLP165 T01610022
Loading
Personal Weather Stations






























Interactive Weather Map
Tropical Storm Tracking
New forecast layout! Learn more

10-Day Weather Forecast

Advertisements
Track Severe Weather on mobile